CheckWX is a tool to help pilots better visualize weather data.  It is not intended as a substitute for an official pre-flight weather briefing.

23:19:24 UTC

KEDE METAR
Northeastern Regional Airport
Edenton, North Carolina, USA
Current

24 mins ago

KEDE 242255Z AUTO 18007KT 10SM BKN045 OVC055 12/08 A3006 RMK AO2 T01190078
Observed
Feb-24 @ 22:55 UTC
Wind
  • 180° at 7 KTS
Visibility
10 SM
Flight Rules
VFR
Cloud Levels
  • Broken at 4,500' AGL
  • Overcast at 5,500' AGL
Temperature
12°C / 54°F
Dewpoint
C / 46°F
Humidity
77%
Altimeter
30.06" Hg
Pressure
1017.92 hPa
Previous

44 mins ago

KEDE 242235Z AUTO 17006KT 10SM SCT049 OVC055 12/08 A3006 RMK AO2 T01220076
Observed
Feb-24 @ 22:35 UTC
Wind
  • 170° at 6 KTS
Visibility
10 SM
Flight Rules
VFR
Cloud Levels
  • Scattered at 4,900' AGL
  • Overcast at 5,500' AGL
Temperature
12°C / 54°F
Dewpoint
C / 46°F
Humidity
77%
Altimeter
30.06" Hg
Pressure
1017.92 hPa
Previous

1 hour ago

KEDE 242215Z AUTO 16005KT 10SM BKN065 OVC075 13/07 A3005 RMK AO2 T01260073
Observed
Feb-24 @ 22:15 UTC
Wind
  • 160° at 5 KTS
Visibility
10 SM
Flight Rules
VFR
Cloud Levels
  • Broken at 6,500' AGL
  • Overcast at 7,500' AGL
Temperature
13°C / 55°F
Dewpoint
C / 45°F
Humidity
67%
Altimeter
30.05" Hg
Pressure
1017.62 hPa